createdAt,value
2023-02-24T00:02:35.469Z,97850
2023-02-24T00:14:35.320Z,97850
2023-02-24T00:26:35.392Z,97830
2023-02-24T00:38:35.433Z,97820
2023-02-24T00:50:35.435Z,97820
2023-02-24T01:02:35.372Z,97800
2023-02-24T01:14:36.535Z,97790
2023-02-24T01:26:35.325Z,97780
2023-02-24T01:38:35.439Z,97760
2023-02-24T01:50:35.424Z,97740
2023-02-24T02:02:35.528Z,97710
2023-02-24T02:14:35.350Z,97710
2023-02-24T02:26:35.355Z,97700
2023-02-24T02:38:35.357Z,97690
2023-02-24T02:50:35.336Z,97690
2023-02-24T03:02:35.400Z,97670
2023-02-24T03:14:35.324Z,97650
2023-02-24T03:26:35.426Z,97640
2023-02-24T03:38:35.326Z,97630
2023-02-24T03:50:35.436Z,97610
2023-02-24T04:02:35.521Z,97610
2023-02-24T04:14:35.403Z,97600
2023-02-24T04:26:36.509Z,97600
2023-02-24T04:38:35.326Z,97590
2023-02-24T04:50:35.349Z,97580
2023-02-24T05:02:35.393Z,97560
2023-02-24T05:14:35.331Z,97550
2023-02-24T05:26:35.413Z,97540
2023-02-24T05:38:35.389Z,97530
2023-02-24T05:50:35.334Z,97510
2023-02-24T06:02:35.417Z,97510
2023-02-24T06:14:35.322Z,97520
2023-02-24T06:26:35.349Z,97510
2023-02-24T06:38:35.448Z,97520
2023-02-24T06:50:35.338Z,97510
2023-02-24T07:02:35.356Z,97490
2023-02-24T07:14:35.339Z,97490
2023-02-24T07:26:35.390Z,97500
2023-02-24T07:38:35.411Z,97480
2023-02-24T07:50:35.339Z,97480
2023-02-24T08:02:35.527Z,97460
2023-02-24T08:14:35.376Z,97450
2023-02-24T08:38:35.395Z,97420
2023-02-24T08:50:35.380Z,97410
2023-02-24T09:02:35.389Z,97400
2023-02-24T09:14:35.337Z,97390
2023-02-24T09:26:35.332Z,97370
2023-02-24T09:38:35.420Z,97370
2023-02-24T09:50:59.873Z,97360
2023-02-24T10:02:35.497Z,97340
2023-02-24T10:14:43.137Z,97320
2023-02-24T10:26:35.358Z,97320
2023-02-24T10:38:35.426Z,97320
2023-02-24T10:50:39.350Z,97310
2023-02-24T11:02:35.497Z,97300
2023-02-24T11:14:35.335Z,97270
2023-02-24T11:26:35.380Z,97260
2023-02-24T11:38:35.322Z,97220
2023-02-24T11:50:35.335Z,97210
2023-02-24T12:02:35.456Z,97180
2023-02-24T12:14:35.373Z,97170
2023-02-24T12:26:35.430Z,97160
2023-02-24T12:38:35.361Z,97150
2023-02-24T12:50:35.374Z,97140
2023-02-24T13:02:35.470Z,97110
2023-02-24T13:14:35.323Z,97100
2023-02-24T13:26:35.401Z,97080
2023-02-24T13:38:35.381Z,97060
2023-02-24T13:50:35.331Z,97050
2023-02-24T14:02:35.458Z,97030
2023-02-24T14:14:36.136Z,97020
2023-02-24T14:26:35.335Z,97010
2023-02-24T14:38:35.333Z,97000
2023-02-24T14:50:35.437Z,96980
2023-02-24T15:02:35.412Z,96980
2023-02-24T15:14:35.332Z,96970
2023-02-24T15:26:35.430Z,96950
2023-02-24T15:38:35.325Z,96950
2023-02-24T15:50:35.340Z,96940
2023-02-24T16:02:35.433Z,96920
2023-02-24T16:14:35.397Z,96900
2023-02-24T16:26:35.389Z,96920
2023-02-24T16:38:35.371Z,96910
2023-02-24T16:50:35.402Z,96900
2023-02-24T17:02:35.328Z,96890
2023-02-24T17:14:35.424Z,96900
2023-02-24T17:26:35.445Z,96910
2023-02-24T17:38:35.420Z,96900
2023-02-24T17:50:35.411Z,96890
2023-02-24T18:02:35.566Z,96910
2023-02-24T18:14:35.426Z,96890
2023-02-24T18:26:35.410Z,96880
2023-02-24T18:38:35.442Z,96890
2023-02-24T18:50:35.353Z,96900
2023-02-24T19:02:35.395Z,96900
2023-02-24T19:14:35.367Z,96910
2023-02-24T19:26:35.431Z,96900
2023-02-24T19:38:35.387Z,96900
2023-02-24T19:50:35.417Z,96890
2023-02-24T20:02:35.403Z,96880
2023-02-24T20:14:35.421Z,96880
2023-02-24T20:26:35.440Z,96880
2023-02-24T20:38:35.393Z,96900
2023-02-24T20:50:35.405Z,96910
2023-02-24T21:02:35.388Z,96910
2023-02-24T21:14:35.422Z,96920
2023-02-24T21:26:35.398Z,96920
2023-02-24T21:38:35.353Z,96930
2023-02-24T21:50:35.326Z,96940
2023-02-24T22:02:35.443Z,96950
2023-02-24T22:14:35.388Z,96950
2023-02-24T22:26:35.436Z,96960
2023-02-24T22:38:35.408Z,96970
2023-02-24T22:50:35.394Z,96970
2023-02-24T23:02:35.364Z,96970
2023-02-24T23:14:35.358Z,96980
2023-02-24T23:26:35.414Z,96980
2023-02-24T23:38:35.360Z,96990
2023-02-24T23:50:35.437Z,97000
